This is the latest recevied weather packets stored in our database for station/object NQ9F. If no packets are shown the sender has not sent any weather packets the latest 1 day(s).
| Time | Temp. | Humidity | Pressure | Rain* | Wind** | Luminosity | Snow |
|---|---|---|---|---|---|---|---|
| 1778102896 | 18.89° C | 66% | 1013.6 hPa | 0 mm | - | 531 W/m² | - |
| 1778101675 | 18.89° C | 68% | 1014 hPa | 0 mm | - | 750 W/m² | - |
| 1778100159 | 18.33° C | 69% | 1014 hPa | 0 mm | - | 622 W/m² | - |
| 1778096509 | 18.33° C | 69% | 1014.7 hPa | 0 mm | - | 675 W/m² | - |
| 1778095297 | 17.22° C | 71% | 1014.7 hPa | 0 mm | - | 658 W/m² | - |
| 1778093175 | 16.11° C | 74% | 1014.5 hPa | 0 mm | - | 473 W/m² | - |
| 1778092872 | 15.56° C | 73% | 1014.6 hPa | 0 mm | - | 465 W/m² | - |
| 1778092569 | 15.56° C | 74% | 1014.8 hPa | 0 mm | - | 551 W/m² | - |
| 1778091053 | 14.44° C | 75% | 1014.6 hPa | 0 mm | - | 494 W/m² | - |
| 1778089834 | 13.89° C | 76% | 1015 hPa | 0 mm | - | 561 W/m² | - |
| 1778086493 | 12.22° C | 82% | 1015.2 hPa | 0 mm | - | 257 W/m² | - |
| 1778085278 | 11.67° C | 83% | 1014.8 hPa | 0 mm | - | 301 W/m² | - |
| 1778084973 | 11.67° C | 84% | 1015 hPa | 0 mm | - | 210 W/m² | - |
| 1778084671 | 11.67° C | 85% | 1015.1 hPa | 0 mm | - | 175 W/m² | - |
| 1778084368 | 11.67° C | 85% | 1015 hPa | 0 mm | - | 197 W/m² | - |
| 1778081725 | 10.56° C | 89% | 1015 hPa | 0 mm | - | 179 W/m² | - |
| 1778080515 | 10° C | 92% | 1015.4 hPa | 1.27 mm | - | 137 W/m² | - |
| 1778080212 | 10° C | 93% | 1015.9 hPa | 1.78 mm | - | 81 W/m² | - |
| 1778079908 | 10° C | 93% | 1016.3 hPa | 0.51 mm | - | 80 W/m² | - |
| 1778078394 | 10° C | 92% | 1016.6 hPa | 0 mm | - | 32 W/m² | - |
| 1778077789 | 10° C | 93% | 1014.9 hPa | 0.51 mm | - | 71 W/m² | - |
| 1778076882 | 10° C | 93% | 1015.2 hPa | 0 mm | - | 36 W/m² | - |
| 1778076277 | 10° C | 93% | 1015 hPa | 0.51 mm | - | 25 W/m² | - |
| 1778075671 | 10° C | 92% | 1015.4 hPa | 0 mm | - | 39 W/m² | - |
| 1778075367 | 10° C | 91% | 1015.7 hPa | 0 mm | - | 52 W/m² | - |
* Rain latest hour (hover to see other rain measurements)
** Current wind speed in m/s (hover to see current wind gust speed)